Latest Weather Observations for Tibooburra Airport

IDN60801

Issued at 12:05 pm EST Saturday 19 April 2014 (issued every 30 minutes, with the page automatically refreshed every 10 minutes)

About weather observations | Map of weather stations | Latest weather observations for NSW | Other Formats
Station Details ID: 046126 Name: TIBOOBURRA AIRPORT Lat: -29.44 Lon: 142.06 Height: 176.4 m
Data from the previous 72 hours. | See also: Recent months for locations in New South Wales
Date/Time
EST
Temp
°C
App
Temp
°C
Dew
Point
Rel
Hum
%
Delta-T
°C
Wind Press
QNH
hPa
Press
MSL
hPa
Rain
since 9 am
mm
Dir
 
Spd
km/h
Gust
km/h
Spd
kts
Gust
kts
19/12:00pm 21.9 17.5 6.6 37 7.8 SSW 19 30 10 16 1020.5 1019.9 0.0
19/11:30am 21.0 17.3 6.5 39 7.4 S 15 20 8 11 1020.8 - 0.0
19/11:00am 20.9 17.8 7.2 41 7.0 SSE 13 20 7 11 1021.0 1020.4 0.0
19/10:30am 20.5 17.5 7.8 44 6.6 SSE 13 20 7 11 1021.2 - 0.0
19/10:00am 19.4 16.0 7.8 47 6.0 SE 15 20 8 11 1021.5 1020.9 0.0
19/09:30am 18.8 15.5 8.2 50 5.5 SSE 15 20 8 11 1021.7 - 0.0
19/09:00am 18.0 14.4 8.3 53 5.0 SSE 17 20 9 11 1021.5 1020.9 0.0
19/08:30am 16.9 13.9 9.3 61 4.0 S 15 20 8 11 1021.5 - 0.0
19/08:00am 15.4 13.3 9.7 69 3.0 SW 11 13 6 7 1021.3 1020.7 0.0
19/07:30am 13.9 12.2 9.7 76 2.2 SW 9 11 5 6 1021.1 - 0.0
19/07:00am 13.1 10.9 9.4 78 1.9 SW 11 13 6 7 1020.9 1020.3 0.0
19/06:30am 13.5 11.4 9.6 77 2.0 SW 11 13 6 7 1020.7 - 0.0
19/06:00am 13.7 11.6 9.6 76 2.1 SW 11 13 6 7 1020.7 1020.1 0.0
19/05:30am 14.2 12.0 9.4 73 2.5 SSW 11 13 6 7 1020.5 - 0.0
19/05:00am 14.8 12.7 9.6 71 2.7 SSW 11 13 6 7 1020.4 1019.8 0.0
19/04:30am 15.3 12.7 9.4 68 3.1 SSW 13 17 7 9 1020.2 - 0.0
19/04:00am 15.7 13.1 9.4 66 3.3 SSW 13 17 7 9 1020.0 1019.4 0.0
19/03:30am 15.6 12.8 8.6 63 3.6 SSW 13 17 7 9 1019.9 - 0.0
19/03:00am 15.5 13.0 8.0 61 3.8 SW 11 13 6 7 1019.8 1019.2 0.0
19/02:30am 15.9 13.7 7.9 59 4.1 S 9 11 5 6 1019.9 - 0.0
19/02:00am 15.8 13.2 7.6 58 4.1 SW 11 13 6 7 1020.0 1019.4 0.0
19/01:30am 16.0 13.1 6.7 54 4.6 S 11 13 6 7 1020.1 - 0.0
19/01:00am 16.3 14.0 7.3 55 4.5 S 9 11 5 6 1020.2 1019.6 0.0
19/12:30am 16.9 14.5 7.0 52 5.0 S 9 11 5 6 1020.2 - 0.0
19/12:00am 17.7 15.0 7.2 50 5.3 S 11 13 6 7 1020.0 1019.4 0.0
 
Date/Time
EST
Temp
°C
App
Temp
°C
Dew
Point
Rel
Hum
%
Delta-T
°C
Wind Press
QNH
hPa
Press
MSL
hPa
Rain
since 9 am
mm
Dir
 
Spd
km/h
Gust
km/h
Spd
kts
Gust
kts
18/11:30pm 18.1 15.4 7.2 49 5.5 S 11 13 6 7 1020.1 - 0.0
18/11:00pm 19.0 16.3 7.4 47 5.9 S 11 15 6 8 1020.2 1019.6 0.0
18/10:30pm 19.4 16.4 7.5 46 6.1 S 13 17 7 9 1020.3 - 0.0
18/10:00pm 19.4 16.7 7.2 45 6.2 S 11 13 6 7 1020.2 1019.6 0.0
18/09:30pm 19.8 17.0 6.9 43 6.6 SSW 11 13 6 7 1020.1 - 0.0
18/09:00pm 20.9 16.6 7.2 41 7.1 SSW 19 22 10 12 1020.2 1019.6 0.0
18/08:30pm 21.6 17.7 7.1 39 7.5 S 17 22 9 12 1019.9 - 0.0
18/08:00pm 22.4 17.1 7.0 37 8.0 SSW 24 32 13 17 1019.7 1019.1 0.0
18/07:30pm 23.2 17.2 6.9 35 8.5 SSW 28 35 15 19 1019.3 - 0.0
18/07:00pm 24.0 18.7 6.7 33 9.0 SSW 24 33 13 18 1018.9 1018.3 0.0
18/06:30pm 24.7 19.3 6.4 31 9.5 SSW 24 32 13 17 1018.6 - 0.0
18/06:00pm 25.5 20.6 6.7 30 9.9 SSW 22 30 12 16 1018.3 1017.7 0.0
18/05:30pm 26.3 20.4 7.4 30 10.1 SW 28 37 15 20 1018.1 - 0.0
18/05:00pm 26.6 20.3 7.6 30 10.2 SW 30 39 16 21 1018.0 1017.4 0.0
18/04:30pm 27.2 22.1 7.6 29 10.6 WSW 24 35 13 19 1018.0 - 0.0
18/04:00pm 27.3 21.3 7.2 28 10.8 WSW 28 41 15 22 1018.0 1017.4 0.0
18/03:30pm 27.6 21.2 6.9 27 11.1 SW 30 39 16 21 1018.0 - 0.0
18/03:00pm 27.4 21.7 6.8 27 11.0 SW 26 35 14 19 1018.1 1017.5 0.0
18/02:30pm 27.9 22.7 7.2 27 11.1 WSW 24 35 13 19 1018.2 - 0.0
18/02:00pm 27.5 22.6 6.8 27 11.0 WSW 22 35 12 19 1018.5 1017.9 0.0
18/01:30pm 27.6 23.1 6.9 27 11.1 SSW 20 26 11 14 1018.8 - 0.0
18/01:00pm 27.7 22.8 7.0 27 11.1 SSW 22 30 12 16 1019.4 1018.8 0.0
18/12:30pm 27.3 22.4 6.7 27 10.9 S 22 26 12 14 1019.8 - 0.0
18/12:00pm 26.6 22.6 6.6 28 10.5 SW 17 28 9 15 1020.4 1019.8 0.0
18/11:30am 26.2 22.8 5.7 27 10.6 SW 13 22 7 12 1020.6 - 0.0
18/11:00am 26.0 23.4 6.1 28 10.4 SW 9 19 5 10 1020.8 1020.2 0.0
18/10:30am 25.2 21.9 6.4 30 9.8 SW 13 17 7 9 1021.1 - 0.0
18/10:00am 24.4 21.7 5.7 30 9.6 SW 9 13 5 7 1021.4 1020.8 0.0
18/09:30am 23.4 21.5 4.9 30 9.3 WSW 4 9 2 5 1021.5 - 0.0
18/09:00am 21.9 20.8 4.9 33 8.4 CALM 0 0 0 0 1021.4 1020.8 0.0
18/08:30am 19.5 17.7 5.6 40 6.9 WSW 4 7 2 4 1021.2 - 0.0
18/08:00am 18.3 15.9 5.2 42 6.4 W 7 7 4 4 1021.0 1020.4 0.0
18/07:30am 15.4 12.6 5.0 50 4.9 W 9 11 5 6 1020.8 - 0.0
18/07:00am 14.7 13.5 4.7 51 4.7 CALM 0 0 0 0 1020.5 1019.9 0.0
18/06:30am 15.5 14.3 4.8 49 5.1 CALM 0 0 0 0 1020.3 - 0.0
18/06:00am 14.7 13.2 5.2 53 4.5 W 2 6 1 3 1020.1 1019.5 0.0
18/05:30am 14.6 12.2 5.1 53 4.5 WSW 7 9 4 5 1020.1 - 0.0
18/05:00am 14.8 12.4 5.3 53 4.5 W 7 9 4 5 1020.1 1019.5 0.0
18/04:30am 14.7 11.9 5.2 53 4.5 W 9 9 5 5 1020.0 - 0.0
18/04:00am 15.0 12.6 5.2 52 4.7 WSW 7 9 4 5 1019.9 1019.3 0.0
18/03:30am 15.6 13.3 5.5 51 4.9 WSW 7 9 4 5 1020.0 - 0.0
18/03:00am 15.4 12.7 5.6 52 4.7 WSW 9 9 5 5 1020.0 1019.4 0.0
18/02:30am 15.2 12.5 5.4 52 4.7 WSW 9 11 5 6 1020.2 - 0.0
18/02:00am 16.1 13.4 5.4 49 5.1 WSW 9 11 5 6 1020.3 1019.7 0.0
18/01:30am 16.3 12.8 5.3 48 5.3 WSW 13 13 7 7 1020.5 - 0.0
18/01:00am 16.6 14.1 4.6 45 5.7 WSW 7 9 4 5 1020.5 1019.9 0.0
18/12:30am 17.3 14.9 5.3 45 5.8 WSW 7 9 4 5 1020.7 - 0.0
18/12:00am 17.8 15.4 5.4 44 6.0 WSW 7 9 4 5 1020.9 1020.3 0.0
 
Date/Time
EST
Temp
°C
App
Temp
°C
Dew
Point
Rel
Hum
%
Delta-T
°C
Wind Press
QNH
hPa
Press
MSL
hPa
Rain
since 9 am
mm
Dir
 
Spd
km/h
Gust
km/h
Spd
kts
Gust
kts
17/11:30pm 17.6 14.8 5.2 44 6.0 WSW 9 9 5 5 1021.1 - 0.0
17/11:00pm 17.9 15.1 5.2 43 6.2 WSW 9 9 5 5 1021.2 1020.6 0.0
17/10:30pm 18.3 15.4 4.8 41 6.5 WSW 9 9 5 5 1021.3 - 0.0
17/10:00pm 18.9 16.4 5.0 40 6.8 WSW 7 9 4 5 1021.3 1020.7 0.0
17/09:30pm 18.9 16.0 4.7 39 6.9 WSW 9 11 5 6 1021.1 - 0.0
17/09:00pm 19.4 16.4 4.3 37 7.3 SSW 9 11 5 6 1020.9 1020.3 0.0
17/08:30pm 19.9 17.0 4.4 36 7.5 SW 9 9 5 5 1020.8 - 0.0
17/08:00pm 20.7 18.0 3.9 33 8.1 SW 7 9 4 5 1020.6 1020.0 0.0
17/07:30pm 21.7 18.3 3.9 31 8.7 S 11 11 6 6 1020.2 - 0.0
17/07:00pm 22.8 19.0 3.9 29 9.3 S 13 15 7 8 1019.9 1019.3 0.0
17/06:30pm 23.6 19.7 3.5 27 9.9 SSW 13 17 7 9 1019.7 - 0.0
17/06:00pm 24.8 20.8 2.9 24 10.7 SSW 13 19 7 10 1019.6 1019.0 0.0
17/05:30pm 25.7 20.6 3.0 23 11.2 SW 19 22 10 12 1019.4 - 0.0
17/05:00pm 26.1 20.7 2.7 22 11.5 SSW 20 28 11 15 1019.3 1018.7 0.0
17/04:30pm 26.3 21.1 3.5 23 11.4 S 20 28 11 15 1019.3 - 0.0
17/04:00pm 26.7 21.8 3.9 23 11.5 S 19 26 10 14 1019.3 1018.7 0.0
17/03:30pm 26.4 22.2 3.6 23 11.4 SW 15 26 8 14 1019.3 - 0.0
17/03:00pm 26.9 22.1 2.7 21 11.9 S 17 22 9 12 1019.6 1019.0 0.0
17/02:30pm 26.4 21.4 3.6 23 11.4 SSW 19 24 10 13 1019.7 - 0.0
17/02:00pm 26.3 22.8 3.5 23 11.4 SSW 11 24 6 13 1019.8 1019.2 0.0
17/01:30pm 26.0 21.8 3.9 24 11.1 S 15 26 8 14 1020.1 - 0.0
17/01:00pm 25.1 21.0 4.3 26 10.4 S 15 22 8 12 1020.5 1019.9 0.0
17/12:30pm 24.8 21.6 5.1 28 10.0 S 11 20 6 11 1020.9 - 0.0
17/12:00pm 24.5 21.2 4.3 27 10.1 S 11 19 6 10 1021.5 1020.9 0.0
17/11:30am 24.1 20.5 5.0 29 9.7 SE 13 20 7 11 1021.8 - 0.0
17/11:00am 23.8 20.7 5.7 31 9.2 SSE 11 20 6 11 1022.0 1021.5 0.0
17/10:30am 23.5 20.6 6.3 33 8.9 ESE 11 17 6 9 1022.3 - 0.0
17/10:00am 22.9 20.3 6.2 34 8.5 E 9 13 5 7 1022.3 1021.7 0.0
17/09:30am 21.7 19.2 6.4 37 7.8 ESE 9 11 5 6 1022.2 - 0.0
17/09:00am 20.4 18.6 7.1 42 6.8 SSE 6 9 3 5 1021.9 1021.4 0.0
17/08:30am 17.5 15.6 6.7 49 5.4 WSW 6 6 3 3 1021.8 - 0.0
17/08:00am 15.5 13.4 6.5 55 4.4 WSW 7 9 4 5 1021.6 1021.0 0.0
17/07:30am 13.6 11.0 6.2 61 3.6 W 9 11 5 6 1021.2 - 0.0
17/07:00am 12.4 9.7 5.8 64 3.1 W 9 9 5 5 1020.9 1020.3 0.0
17/06:30am 12.4 10.1 5.6 63 3.2 W 7 11 4 6 1020.7 - 0.0
17/06:00am 12.6 9.9 5.8 63 3.2 WSW 9 9 5 5 1020.3 1019.7 0.0
17/05:30am 12.6 9.9 5.5 62 3.3 WSW 9 9 5 5 1020.1 - 0.0
17/05:00am 13.0 9.9 5.4 60 3.6 W 11 13 6 7 1019.8 1019.2 0.0
17/04:30am 13.2 10.5 5.6 60 3.6 WSW 9 11 5 6 1019.7 - 0.0
17/04:00am 13.3 10.6 5.5 59 3.7 WSW 9 11 5 6 1019.6 1019.0 0.0
17/03:30am 13.8 11.1 5.7 58 3.9 WSW 9 11 5 6 1019.6 - 0.0
17/03:00am 13.8 11.1 5.4 57 4.0 WSW 9 11 5 6 1019.6 1019.0 0.0
17/02:30am 14.4 11.7 5.7 56 4.2 W 9 11 5 6 1019.7 - 0.0
17/02:00am 15.4 12.6 5.3 51 4.8 WSW 9 13 5 7 1020.0 1019.4 0.0
17/01:30am 16.0 13.9 5.9 51 4.9 S 6 7 3 4 1020.0 - 0.0
17/01:00am 16.5 13.8 5.8 49 5.2 SSE 9 13 5 7 1020.0 1019.4 0.0
17/12:30am 16.0 13.2 5.3 49 5.1 S 9 11 5 6 1020.2 - 0.0
17/12:00am 16.9 13.8 5.5 47 5.5 S 11 13 6 7 1020.2 1019.6 0.0
 
Date/Time
EST
Temp
°C
App
Temp
°C
Dew
Point
Rel
Hum
%
Delta-T
°C
Wind Press
QNH
hPa
Press
MSL
hPa
Rain
since 9 am
mm
Dir
 
Spd
km/h
Gust
km/h
Spd
kts
Gust
kts
16/11:30pm 17.3 13.8 5.6 46 5.7 S 13 15 7 8 1020.3 - 0.0
16/11:00pm 17.5 14.5 5.8 46 5.7 S 11 13 6 7 1020.4 1019.8 0.0
16/10:30pm 17.7 14.2 5.3 44 6.0 S 13 15 7 8 1020.5 - 0.0
16/10:00pm 17.8 14.6 5.1 43 6.1 SSE 11 13 6 7 1020.4 1019.8 0.0
16/09:30pm 17.7 14.5 5.0 43 6.1 SSE 11 15 6 8 1020.4 - 0.0
16/09:00pm 18.9 16.1 5.0 40 6.8 SSW 9 9 5 5 1020.1 1019.5 0.0
16/08:30pm 19.4 16.2 5.1 39 7.0 SSW 11 11 6 6 1019.7 - 0.0
16/08:00pm 19.7 16.8 4.6 37 7.3 SSW 9 11 5 6 1019.3 1018.7 0.0
16/07:30pm 20.7 17.7 4.3 34 8.0 S 9 13 5 7 1018.9 - 0.0
16/07:00pm 21.7 18.4 4.3 32 8.5 S 11 13 6 7 1018.6 1018.0 0.0
16/06:30pm 23.1 19.0 4.6 30 9.2 S 15 20 8 11 1018.3 - 0.0
16/06:00pm 24.1 19.2 5.0 29 9.6 S 20 24 11 13 1018.0 1017.4 0.0
16/05:30pm 24.8 20.0 4.5 27 10.2 S 19 26 10 14 1017.9 - 0.0
16/05:00pm 25.3 19.5 4.4 26 10.5 S 24 30 13 16 1017.7 1017.1 0.0
16/04:30pm 25.4 19.5 4.0 25 10.7 S 24 30 13 16 1017.7 - 0.0
16/04:00pm 25.6 21.0 3.5 24 11.0 SSE 17 28 9 15 1017.6 1017.0 0.0
16/03:30pm 26.2 21.3 4.1 24 11.1 S 19 26 10 14 1017.8 - 0.0
16/03:00pm 25.2 20.1 3.2 24 10.8 S 19 26 10 14 1018.1 1017.5 0.0
16/02:30pm 25.2 21.0 3.8 25 10.7 S 15 24 8 13 1018.3 - 0.0
16/02:00pm 24.7 20.4 3.4 25 10.5 S 15 28 8 15 1018.5 1017.9 0.0
16/01:30pm 24.7 20.3 4.5 27 10.2 SSE 17 24 9 13 1018.9 - 0.0
16/01:00pm 23.9 19.1 4.8 29 9.6 S 19 28 10 15 1019.6 1019.0 0.0
16/12:30pm 23.7 19.6 6.0 32 9.1 S 17 24 9 13 1020.1 - 0.0

Other Formats:

Comma delimited format used in spreadsheet applications
http://www.bom.gov.au/fwo/IDN60801/IDN60801.95485.axf

JavaScript Object Notation format (JSON) in row-major order
http://www.bom.gov.au/fwo/IDN60801/IDN60801.95485.json